Time;durP1;ratioP1;P1;durP2;ratioP2;P2;SDS_P1;SDS_P2;PMS_P1;PMS_P2;Temp;Humidity;BMP_temperature;BMP_pressure;BME280_temperature;BME280_humidity;BME280_pressure;Samples;Min_cycle;Max_cycle;Signal;HPM_P1;HPM_P2
2022/08/01 00:04:37;;;;;;;4.57;2.63;;;;;;;17.74;92.55;100872.28;10303436;28;20039;-88
2022/08/01 00:09:39;;;;;;;5.30;2.47;;;;;;;17.75;92.82;100877.56;10283117;28;20034;-87
2022/08/01 00:14:41;;;;;;;4.43;2.25;;;;;;;17.74;92.79;100878.44;10306875;28;20395;-88
2022/08/01 00:19:42;;;;;;;7.00;2.65;;;;;;;17.75;92.88;100885.50;10288307;28;20047;-90
2022/08/01 00:24:44;;;;;;;5.68;2.63;;;;;;;17.76;92.76;100900.53;10280913;28;20038;-90
2022/08/01 00:29:46;;;;;;;5.78;3.30;;;;;;;17.77;92.95;100899.59;10311077;28;20515;-91
2022/08/01 00:35:09;;;;;;;5.30;2.80;;;;;;;17.76;92.93;100897.88;10297119;28;20138;-90
2022/08/01 00:40:11;;;;;;;5.32;2.75;;;;;;;17.74;93.26;100891.69;10279773;28;20054;-91
2022/08/01 00:45:13;;;;;;;5.15;3.13;;;;;;;17.71;92.77;100883.78;10274193;28;20046;-88
2022/08/01 00:50:15;;;;;;;8.35;4.13;;;;;;;17.73;93.08;100889.06;10300626;28;20057;-88
2022/08/01 00:55:18;;;;;;;7.90;4.30;;;;;;;17.70;93.17;100871.47;10270568;28;20046;-89
2022/08/01 01:00:20;;;;;;;9.23;4.68;;;;;;;17.63;93.12;100853.88;10286922;28;20038;-87
2022/08/01 01:05:28;;;;;;;9.65;4.43;;;;;;;17.64;92.98;100863.59;10282257;28;20054;-88
2022/08/01 01:11:02;;;;;;;7.70;4.72;;;;;;;17.62;93.22;100852.13;10279737;28;20050;-91
2022/08/01 01:16:09;;;;;;;9.65;3.97;;;;;;;17.60;93.55;100849.47;10298835;28;20042;-89
2022/08/01 01:21:17;;;;;;;9.55;4.43;;;;;;;17.62;93.50;100865.34;10272081;28;20538;-87
2022/08/01 01:27:01;;;;;;;7.93;4.20;;;;;;;17.60;93.77;100852.13;10294159;28;20050;-89
2022/08/01 01:32:14;;;;;;;9.52;4.75;;;;;;;17.64;93.34;100880.34;10256548;28;20046;-87
2022/08/01 01:37:20;;;;;;;11.20;5.28;;;;;;;17.61;93.65;100868.88;10308171;28;20182;-91
2022/08/01 01:42:25;;;;;;;9.88;5.57;;;;;;;17.57;93.52;100851.31;10284395;28;20461;-89
2022/08/01 01:47:27;;;;;;;7.55;3.40;;;;;;;17.53;93.60;100839.84;10276501;28;20393;-91
2022/08/01 01:52:31;;;;;;;8.35;2.90;;;;;;;17.49;93.59;100816.97;10279546;28;20046;-91
2022/08/01 01:57:37;;;;;;;5.18;2.70;;;;;;;17.47;93.71;100816.09;10298378;28;20050;-89
2022/08/01 02:02:41;;;;;;;10.40;2.80;;;;;;;17.46;93.70;100812.59;10301094;28;20042;-88
2022/08/01 02:07:45;;;;;;;6.03;3.30;;;;;;;17.46;93.94;100817.88;10296434;28;20515;-89
2022/08/01 02:12:50;;;;;;;8.20;3.42;;;;;;;17.44;93.78;100814.38;10289086;28;20043;-89
2022/08/01 02:17:54;;;;;;;7.93;3.50;;;;;;;17.45;94.18;100809.97;10263654;28;20042;-88
2022/08/01 02:23:05;;;;;;;8.18;3.50;;;;;;;17.43;94.15;100804.69;10285444;28;20527;-89
2022/08/01 02:28:11;;;;;;;6.40;3.35;;;;;;;17.43;94.15;100811.72;10279265;28;20046;-91
2022/08/01 02:33:41;;;;;;;6.68;2.45;;;;;;;17.37;93.93;100787.97;10279774;28;20070;-91
2022/08/01 02:38:45;;;;;;;4.30;2.42;;;;;;;17.29;94.10;100753.66;10281463;28;20137;-92
2022/08/01 02:43:51;;;;;;;9.30;2.45;;;;;;;17.22;94.27;100731.69;10302693;28;20041;-88
2022/08/01 02:48:56;;;;;;;4.15;2.08;;;;;;;17.17;94.06;100708.81;10277056;28;20105;-88
2022/08/01 02:54:01;;;;;;;4.50;2.40;;;;;;;17.12;94.32;100685.06;10293102;28;20485;-89
2022/08/01 02:59:07;;;;;;;5.47;2.60;;;;;;;17.01;94.39;100645.53;10272577;28;20050;-90
2022/08/01 03:04:10;;;;;;;3.97;2.33;;;;;;;16.95;94.37;100621.78;10287224;28;20057;-92
2022/08/01 03:09:13;;;;;;;3.85;2.15;;;;;;;16.93;94.58;100618.28;10261540;28;20050;-88
2022/08/01 03:14:20;;;;;;;6.07;2.00;;;;;;;16.92;94.63;100613.91;10294079;28;20507;-90
2022/08/01 03:19:26;;;;;;;5.00;2.45;;;;;;;16.91;94.50;100614.78;10283710;28;20042;-88
2022/08/01 03:24:29;;;;;;;7.28;2.92;;;;;;;16.90;94.58;100610.38;10280090;28;20050;-90
2022/08/01 03:29:32;;;;;;;5.13;2.75;;;;;;;16.89;94.52;100616.53;10271812;28;20585;-91
2022/08/01 03:34:34;;;;;;;5.65;2.67;;;;;;;16.84;94.76;100598.06;10295891;28;20314;-89
2022/08/01 03:40:02;;;;;;;8.57;2.92;;;;;;;16.82;94.41;100588.41;10276225;28;20137;-88
2022/08/01 03:45:09;;;;;;;6.63;2.75;;;;;;;16.76;94.72;100569.06;10293490;28;20038;-87
2022/08/01 03:50:16;;;;;;;7.45;2.70;;;;;;;16.73;94.50;100558.53;10279875;28;20055;-87
2022/08/01 03:55:20;;;;;;;7.85;2.67;;;;;;;16.71;94.75;100543.56;10290026;28;20129;-89
2022/08/01 04:00:22;;;;;;;6.95;2.53;;;;;;;16.68;94.70;100544.50;10293908;28;20045;-88
2022/08/01 04:05:24;;;;;;;3.60;1.80;;;;;;;16.61;94.78;100521.69;10292006;28;20050;-88
2022/08/01 04:10:25;;;;;;;3.97;1.90;;;;;;;16.58;94.48;100505.84;10294323;28;20109;-87
2022/08/01 04:15:27;;;;;;;5.72;2.10;;;;;;;16.57;94.79;100497.06;10286425;28;20469;-88
2022/08/01 04:20:29;;;;;;;7.38;1.83;;;;;;;16.53;94.61;100490.06;10289110;28;20120;-88
2022/08/01 04:25:39;;;;;;;9.15;1.90;;;;;;;16.49;95.00;100475.13;10272062;28;20042;-88
2022/08/01 04:30:42;;;;;;;5.15;2.03;;;;;;;16.43;94.65;100451.41;10283189;28;20050;-88
2022/08/01 04:35:46;;;;;;;5.15;1.52;;;;;;;16.40;94.78;100439.09;10293931;28;20518;-88
2022/08/01 04:41:06;;;;;;;7.43;2.03;;;;;;;16.37;94.63;100435.66;10301709;28;20066;-87
2022/08/01 04:46:11;;;;;;;4.18;1.27;;;;;;;16.31;95.04;100404.03;10292024;28;20054;-86
2022/08/01 04:51:15;;;;;;;11.05;1.80;;;;;;;16.36;94.76;100437.41;10298920;28;20053;-87
2022/08/01 04:56:18;;;;;;;5.72;1.45;;;;;;;16.39;95.00;100445.31;10298271;28;20046;-87
2022/08/01 05:01:20;;;;;;;6.57;1.70;;;;;;;16.35;94.75;100433.03;10283875;28;20066;-88
2022/08/01 05:06:22;;;;;;;6.03;1.95;;;;;;;16.30;95.08;100410.19;10276263;28;20689;-87
2022/08/01 05:11:23;;;;;;;9.25;2.13;;;;;;;16.23;94.79;100388.28;10299949;28;20129;-88
2022/08/01 05:16:26;;;;;;;13.15;2.20;;;;;;;16.19;95.10;100373.34;10296699;28;20169;-87
2022/08/01 05:21:28;;;;;;;9.23;3.00;;;;;;;16.19;94.84;100375.97;10297396;28;20077;-87
2022/08/01 05:26:29;;;;;;;13.73;2.50;;;;;;;16.16;94.88;100362.81;10308549;28;20038;-87
2022/08/01 05:31:34;;;;;;;7.60;2.30;;;;;;;16.03;95.06;100310.16;10299431;28;20144;-87
2022/08/01 05:36:37;;;;;;;5.55;2.15;;;;;;;16.00;94.85;100302.28;10293635;28;20051;-89
2022/08/01 05:41:40;;;;;;;8.20;2.13;;;;;;;15.95;94.90;100288.25;10289139;28;20054;-87
2022/08/01 05:46:41;;;;;;;14.50;2.95;;;;;;;15.98;95.17;100303.19;10289573;28;20038;-86
2022/08/01 05:51:43;;;;;;;9.65;2.78;;;;;;;15.92;94.99;100280.38;10295366;28;20129;-87
2022/08/01 05:56:47;;;;;;;7.45;2.53;;;;;;;15.93;94.79;100278.59;10273726;28;20046;-86
2022/08/01 06:01:51;;;;;;;8.40;3.00;;;;;;;15.97;94.90;100312.84;10294922;28;20686;-87
2022/08/01 06:06:53;;;;;;;11.63;2.50;;;;;;;15.89;94.92;100270.72;10277515;28;20129;-88
2022/08/01 06:11:55;;;;;;;10.05;2.47;;;;;;;15.87;95.03;100269.88;10274520;28;20510;-89
2022/08/01 06:16:58;;;;;;;13.10;2.60;;;;;;;15.84;94.71;100255.84;10288498;28;20415;-89
2022/08/01 06:22:00;;;;;;;16.33;2.75;;;;;;;15.90;95.14;100285.66;10277240;28;20049;-88
2022/08/01 06:27:02;;;;;;;12.60;2.65;;;;;;;15.88;94.65;100287.47;10256863;28;20039;-87
2022/08/01 06:32:22;;;;;;;11.43;2.35;;;;;;;15.98;94.67;100327.81;10302465;28;20462;-86
2022/08/01 06:37:29;;;;;;;16.05;2.67;;;;;;;16.06;94.62;100365.59;10296251;28;20046;-86
2022/08/01 06:42:35;;;;;;;8.23;2.80;;;;;;;16.17;94.76;100409.44;10298534;28;20054;-86
2022/08/01 06:47:40;;;;;;;12.88;3.22;;;;;;;16.27;94.78;100453.34;10292141;28;20074;-86
2022/08/01 06:52:42;;;;;;;13.07;2.55;;;;;;;16.39;94.53;100507.81;10256360;28;20506;-86
2022/08/01 06:57:48;;;;;;;15.27;2.90;;;;;;;16.54;94.44;100570.22;10275619;28;20581;-85
2022/08/01 07:02:51;;;;;;;10.73;2.83;;;;;;;16.59;94.57;100592.19;10295533;28;20046;-86
2022/08/01 07:07:53;;;;;;;15.13;2.92;;;;;;;16.61;94.45;100612.41;10289573;28;20038;-85
2022/08/01 07:12:55;;;;;;;17.83;3.20;;;;;;;16.72;94.39;100644.06;10305770;28;20094;-86
2022/08/01 07:17:58;;;;;;;10.25;2.72;;;;;;;-147.53;100.00;57128.34;10283380;28;20429;-86
2022/08/01 07:23:00;;;;;;;15.32;3.08;;;;;;;-147.53;100.00;57128.34;10306987;28;20069;-86
2022/08/01 07:28:02;;;;;;;13.93;2.78;;;;;;;-147.53;100.00;57128.34;10294279;28;20086;-86
2022/08/01 07:33:04;;;;;;;13.60;2.92;;;;;;;-147.53;100.00;57128.34;10302183;28;20043;-86
2022/08/01 07:38:06;;;;;;;17.80;3.15;;;;;;;-147.53;100.00;57128.34;10279140;28;20525;-86
2022/08/01 07:43:13;;;;;;;18.27;2.75;;;;;;;19.02;93.61;101642.84;10299418;28;20057;-87
2022/08/01 07:48:16;;;;;;;14.18;2.22;;;;;;;20.10;93.44;102112.75;10294259;28;20050;-84
2022/08/01 07:53:18;;;;;;;16.05;2.95;;;;;;;-147.53;100.00;57128.34;10271720;28;20050;-84
2022/08/01 07:58:20;;;;;;;11.15;1.90;;;;;;;20.10;93.44;102112.75;10302904;28;20473;-85
2022/08/01 08:03:21;;;;;;;12.00;2.42;;;;;;;19.18;92.57;101672.84;10264246;28;20043;-85
2022/08/01 08:08:23;;;;;;;11.00;2.13;;;;;;;18.91;92.12;101544.69;10300966;28;20157;-85
2022/08/01 08:13:25;;;;;;;13.70;2.10;;;;;;;19.10;91.70;101625.13;10298893;28;20078;-85
2022/08/01 08:18:26;;;;;;;13.45;2.25;;;;;;;19.40;91.45;101750.66;10294060;28;20122;-86
2022/08/01 08:28:48;;;;;;;14.43;2.97;;;;;;;18.79;90.78;101467.81;10302587;28;20042;-85
2022/08/01 08:33:50;;;;;;;11.70;1.98;;;;;;;19.34;90.47;101702.88;10287722;28;20510;-85
2022/08/01 08:38:51;;;;;;;19.30;2.60;;;;;;;20.16;90.11;102062.22;10293252;28;20042;-85
2022/08/01 08:43:53;;;;;;;11.63;2.50;;;;;;;20.89;89.53;102360.13;10294353;28;20150;-85
2022/08/01 08:48:56;;;;;;;15.88;2.22;;;;;;;21.51;89.26;102630.06;10300657;28;20452;-83
2022/08/01 08:54:00;;;;;;;9.23;1.83;;;;;;;21.42;88.59;102566.06;10276072;28;20050;-84
2022/08/01 08:59:03;;;;;;;10.75;2.03;;;;;;;21.56;88.19;102611.41;10303415;28;20531;-85
2022/08/01 09:04:05;;;;;;;9.70;1.90;;;;;;;21.40;87.57;102518.13;10301401;28;20078;-85
2022/08/01 09:09:08;;;;;;;10.52;1.63;;;;;;;21.83;87.08;102690.53;10297066;28;20035;-85
2022/08/01 09:14:16;;;;;;;14.32;2.20;;;;;;;22.58;86.17;103004.59;10298972;28;20634;-85
2022/08/01 09:19:20;;;;;;;14.23;2.40;;;;;;;22.88;85.37;103115.00;10302939;28;20052;-85
2022/08/01 09:24:41;;;;;;;14.65;2.40;;;;;;;22.91;84.61;103097.22;10285287;28;20055;-85
2022/08/01 09:29:44;;;;;;;15.40;2.50;;;;;;;22.75;83.80;102993.94;10284704;28;20197;-86
2022/08/01 09:34:50;;;;;;;14.13;2.22;;;;;;;22.53;82.95;102871.09;10288687;28;20291;-85
2022/08/01 09:39:57;;;;;;;13.73;2.17;;;;;;;22.70;82.59;102928.94;10270056;28;20109;-86
2022/08/01 09:45:01;;;;;;;10.32;1.90;;;;;;;22.71;81.75;102896.91;10276014;28;20042;-86
2022/08/01 09:50:03;;;;;;;10.77;2.25;;;;;;;22.35;80.91;102717.19;10284085;28;20055;-85
2022/08/01 09:55:11;;;;;;;13.20;2.13;;;;;;;22.16;80.14;102608.66;10295211;28;20052;-86
2022/08/01 10:00:17;;;;;;;10.80;1.63;;;;;;;21.79;79.47;102427.44;10293641;28;20054;-84
2022/08/01 10:05:42;;;;;;;10.75;1.67;;;;;;;21.83;78.86;102434.56;10284169;28;20732;-84
2022/08/01 10:11:07;;;;;;;14.35;1.92;;;;;;;21.84;78.28;102413.22;10288116;28;20038;-83
2022/08/01 10:16:12;;;;;;;11.50;1.60;;;;;;;21.94;77.62;102445.16;10289781;28;20043;-86
2022/08/01 10:21:17;;;;;;;10.18;1.50;;;;;;;21.91;77.26;102407.84;10296413;28;20043;-84
2022/08/01 10:26:40;;;;;;;9.77;1.50;;;;;;;22.14;76.69;102493.97;10296472;28;20125;-85
2022/08/01 10:31:42;;;;;;;19.35;2.50;;;;;;;22.62;76.08;102688.63;10274676;28;20046;-85
2022/08/01 10:36:51;;;;;;;9.63;1.80;;;;;;;22.87;75.31;102779.38;10271038;28;20533;-84
2022/08/01 10:41:55;;;;;;;13.13;2.13;;;;;;;22.80;74.84;102732.22;10295649;28;20533;-84
2022/08/01 10:47:06;;;;;;;9.10;1.70;;;;;;;22.53;74.67;102584.56;10293007;28;20116;-84
2022/08/01 10:52:17;;;;;;;9.55;1.98;;;;;;;22.87;73.86;102726.84;10296349;28;20053;-85
2022/08/01 10:57:21;;;;;;;11.52;2.00;;;;;;;22.83;73.66;102681.47;10284051;28;20051;-84
2022/08/01 11:02:30;;;;;;;9.25;1.70;;;;;;;22.91;72.88;102703.69;10296290;28;20418;-82
2022/08/01 11:07:47;;;;;;;12.50;2.00;;;;;;;23.27;72.29;102833.59;10295665;28;20058;-81
2022/08/01 11:12:50;;;;;;;11.02;2.00;;;;;;;23.46;71.79;102901.25;10308496;28;20438;-81
2022/08/01 11:17:52;;;;;;;7.25;1.50;;;;;;;23.78;71.24;103009.91;10296158;28;20426;-82
2022/08/01 11:23:01;;;;;;;9.18;1.70;;;;;;;23.67;70.78;102947.50;10309101;28;20054;-82
2022/08/01 11:28:16;;;;;;;10.85;1.83;;;;;;;23.54;70.43;102862.88;10310285;28;20593;-85
2022/08/01 11:33:39;;;;;;;10.00;1.73;;;;;;;23.25;69.72;102723.13;10289333;28;20053;-84
2022/08/01 11:38:59;;;;;;;7.20;1.50;;;;;;;23.68;69.22;102892.25;10297394;28;20137;-86
2022/08/01 11:44:05;;;;;;;7.88;1.25;;;;;;;23.81;68.59;102918.94;10286932;28;20101;-82
2022/08/01 11:49:23;;;;;;;9.52;1.80;;;;;;;23.04;68.16;102574.50;10285532;28;20039;-79
2022/08/01 11:54:28;;;;;;;7.35;1.35;;;;;;;23.00;67.51;102543.38;10307176;28;20039;-79
2022/08/01 11:59:48;;;;;;;11.88;1.80;;;;;;;23.50;67.29;102736.38;10294811;28;20405;-82
2022/08/01 12:05:20;;;;;;;11.80;1.98;;;;;;;23.55;66.92;102744.34;10311981;28;20302;-82
2022/08/01 12:10:38;;;;;;;11.75;1.52;;;;;;;23.80;66.23;102834.22;10288823;28;20047;-82
2022/08/01 12:15:50;;;;;;;8.50;1.50;;;;;;;22.95;66.25;102462.38;10285595;28;20100;-81
2022/08/01 12:21:04;;;;;;;10.68;1.85;;;;;;;23.05;65.86;102495.25;10303449;28;20083;-82
2022/08/01 12:26:06;;;;;;;10.18;1.90;;;;;;;22.95;65.45;102446.34;10313634;28;20177;-83
2022/08/01 12:31:08;;;;;;;10.23;1.75;;;;;;;23.62;65.22;102714.88;10288725;28;20051;-82
2022/08/01 12:36:10;;;;;;;9.32;1.60;;;;;;;23.92;64.70;102822.59;10321355;28;20046;-83
2022/08/01 12:41:15;;;;;;;9.05;1.48;;;;;;;23.79;64.53;102757.56;10317925;28;20042;-82
2022/08/01 12:46:17;;;;;;;7.90;1.50;;;;;;;23.67;64.09;102682.78;10300774;28;20065;-83
2022/08/01 12:51:19;;;;;;;4.88;1.33;;;;;;;23.73;63.58;102693.41;10293694;28;20149;-84
2022/08/01 12:56:31;;;;;;;11.98;1.60;;;;;;;23.33;63.47;102511.97;10295233;28;20050;-85
2022/08/01 13:01:33;;;;;;;9.38;1.95;;;;;;;23.30;62.89;102496.84;10284728;28;20046;-84
2022/08/01 13:06:35;;;;;;;11.77;1.25;;;;;;;23.43;62.82;102537.69;10304896;28;20042;-83
2022/08/01 13:11:37;;;;;;;8.68;1.85;;;;;;;23.17;62.50;102417.69;10292872;28;20133;-85
2022/08/01 13:16:54;;;;;;;6.32;1.48;;;;;;;22.97;62.28;102321.69;10278169;28;20109;-84
2022/08/01 13:21:58;;;;;;;10.60;1.75;;;;;;;22.40;62.20;102080.25;10290788;28;20290;-82
2022/08/01 13:27:03;;;;;;;8.48;1.98;;;;;;;22.15;61.74;101967.59;10319974;28;20498;-84
2022/08/01 13:32:19;;;;;;;10.52;1.58;;;;;;;21.97;61.67;101899.34;10317249;28;20051;-83
2022/08/01 13:37:31;;;;;;;10.80;1.30;;;;;;;21.90;61.32;101860.34;10290046;28;20042;-82
2022/08/01 13:42:33;;;;;;;5.88;1.27;;;;;;;22.01;61.31;101909.09;10283931;28;20050;-80
2022/08/01 13:47:35;;;;;;;10.57;1.75;;;;;;;21.96;60.94;101881.59;10273944;28;20101;-82
2022/08/01 13:52:37;;;;;;;8.70;1.58;;;;;;;21.83;61.02;101821.34;10308658;28;20055;-83
2022/08/01 13:57:39;;;;;;;8.05;1.75;;;;;;;21.99;60.93;101892.25;10307251;28;20570;-83
2022/08/01 14:02:40;;;;;;;14.23;2.00;;;;;;;21.68;60.92;101759.34;10307320;28;20514;-83
2022/08/01 14:07:44;;;;;;;9.52;1.50;;;;;;;21.65;60.59;101740.72;10296354;28;20039;-84
2022/08/01 14:12:49;;;;;;;6.43;1.65;;;;;;;21.14;60.71;101527.44;10306185;28;20042;-82
2022/08/01 14:17:52;;;;;;;8.52;1.83;;;;;;;21.61;60.75;101724.81;10307033;28;20052;-84
2022/08/01 14:22:53;;;;;;;8.82;1.48;;;;;;;22.01;60.74;101889.56;10274252;28;20054;-84
2022/08/01 14:27:57;;;;;;;8.77;1.92;;;;;;;22.56;60.48;102112.09;10292956;28;20038;-84
2022/08/01 14:32:59;;;;;;;7.78;1.60;;;;;;;22.87;60.36;102234.56;10290219;28;20089;-84
2022/08/01 14:38:01;;;;;;;6.25;1.50;;;;;;;22.73;60.46;102167.97;10284376;28;20082;-84
2022/08/01 14:43:04;;;;;;;12.77;1.63;;;;;;;22.72;60.00;102153.72;10302702;28;20062;-84
2022/08/01 14:48:20;;;;;;;15.70;2.08;;;;;;;22.68;59.78;102138.63;10283176;28;20039;-84
2022/08/01 14:53:22;;;;;;;8.90;1.42;;;;;;;22.65;60.03;102117.31;10308476;28;20047;-84
2022/08/01 14:58:24;;;;;;;9.13;1.40;;;;;;;22.52;59.63;102056.97;10269393;28;20100;-84
2022/08/01 15:03:26;;;;;;;9.73;1.83;;;;;;;22.55;59.54;102075.66;10306830;28;20133;-85
2022/08/01 15:08:29;;;;;;;5.60;1.20;;;;;;;22.77;59.55;102159.91;10293602;28;20168;-85
2022/08/01 15:13:31;;;;;;;9.45;1.60;;;;;;;22.75;59.36;102135.00;10281173;28;20407;-85
2022/08/01 15:18:32;;;;;;;6.75;1.30;;;;;;;22.43;59.17;101993.97;10298924;28;20045;-81
2022/08/01 15:23:34;;;;;;;10.85;1.52;;;;;;;22.83;59.03;102155.38;10309223;28;20684;-82
2022/08/01 15:28:38;;;;;;;12.25;1.63;;;;;;;22.76;58.57;102123.41;10271091;28;20105;-82
2022/08/01 15:33:40;;;;;;;9.00;1.30;;;;;;;23.09;58.62;102260.16;10292018;28;20042;-81
2022/08/01 15:38:42;;;;;;;10.63;1.58;;;;;;;23.03;58.55;102220.13;10288337;28;20039;-81
2022/08/01 15:43:43;;;;;;;8.85;1.90;;;;;;;22.46;58.01;101971.66;10299269;28;20417;-81
2022/08/01 15:48:46;;;;;;;7.72;1.27;;;;;;;22.08;58.00;101811.19;10272144;28;20061;-85
2022/08/01 15:53:48;;;;;;;5.10;1.02;;;;;;;22.33;57.75;101915.81;10288103;28;20042;-84
2022/08/01 15:58:50;;;;;;;7.93;1.50;;;;;;;22.30;57.59;101893.59;10272528;28;20453;-85
2022/08/01 16:03:58;;;;;;;6.22;1.50;;;;;;;22.04;57.53;101791.72;10293501;28;20038;-86
2022/08/01 16:09:06;;;;;;;6.75;1.40;;;;;;;22.41;57.51;101943.28;10278936;28;20058;-85
2022/08/01 16:14:07;;;;;;;8.38;1.45;;;;;;;22.21;57.27;101849.25;10302793;28;20430;-85
2022/08/01 16:19:12;;;;;;;6.95;1.30;;;;;;;22.21;57.17;101850.13;10267310;28;20476;-86
2022/08/01 16:24:39;;;;;;;;;;;;;;;22.65;56.92;102021.22;10269470;28;20042;-87
2022/08/01 16:29:40;;;;;;;6.97;1.35;;;;;;;22.82;56.98;102086.84;10298123;28;20548;-86
2022/08/01 16:34:42;;;;;;;7.95;1.40;;;;;;;23.10;56.92;102200.50;10295945;28;20522;-85
2022/08/01 16:39:48;;;;;;;6.97;1.50;;;;;;;22.91;56.92;102110.78;10287805;28;20043;-86
2022/08/01 16:44:53;;;;;;;8.43;2.00;;;;;;;22.39;56.21;101897.03;10264851;28;20042;-85
2022/08/01 16:49:55;;;;;;;10.38;1.98;;;;;;;22.62;56.01;101981.22;10278110;28;20038;-85
2022/08/01 16:54:57;;;;;;;9.00;1.80;;;;;;;22.73;56.26;102027.34;10275786;28;20081;-85
2022/08/01 16:59:59;;;;;;;9.85;1.52;;;;;;;22.07;56.11;101749.00;10305318;28;20470;-86
2022/08/01 17:05:01;;;;;;;12.13;1.85;;;;;;;21.49;55.73;101510.00;10282090;28;20042;-86
2022/08/01 17:10:10;;;;;;;8.40;1.98;;;;;;;21.50;55.87;101519.81;10297967;28;20065;-85
2022/08/01 17:15:12;;;;;;;10.13;1.90;;;;;;;21.62;55.83;101566.66;10279843;28;20051;-86
2022/08/01 17:20:13;;;;;;;9.02;1.63;;;;;;;21.19;55.80;101389.78;10273276;28;20061;-85
2022/08/01 17:25:16;;;;;;;10.40;2.15;;;;;;;20.94;55.35;101296.13;10284071;28;20060;-84
2022/08/01 17:30:20;;;;;;;11.35;2.35;;;;;;;20.96;55.64;101300.53;10272644;28;20220;-85
2022/08/01 17:35:22;;;;;;;9.73;2.35;;;;;;;20.96;55.52;101305.84;10283909;28;20046;-86
2022/08/01 17:40:23;;;;;;;18.52;2.70;;;;;;;20.63;55.33;101175.13;10300989;28;20064;-87
2022/08/01 17:45:44;;;;;;;13.48;2.50;;;;;;;20.05;55.69;100947.56;10281584;28;20413;-85
2022/08/01 17:50:52;;;;;;;9.35;2.25;;;;;;;19.54;55.64;100755.47;10271316;28;20047;-86
2022/08/01 17:55:57;;;;;;;8.27;1.50;;;;;;;19.03;55.62;100560.09;10293121;28;20039;-83
2022/08/01 18:00:59;;;;;;;9.55;1.77;;;;;;;18.70;55.64;100437.88;10292982;28;20118;-83
2022/08/01 18:06:02;;;;;;;7.35;1.60;;;;;;;18.53;55.58;100374.63;10297951;28;20050;-84
2022/08/01 18:11:03;;;;;;;8.65;1.60;;;;;;;18.38;55.70;100320.16;10292933;28;20064;-83
2022/08/01 18:16:07;;;;;;;7.35;2.38;;;;;;;18.15;55.96;100227.94;10276152;28;20047;-85
2022/08/01 18:21:10;;;;;;;7.43;1.80;;;;;;;17.88;56.01;100133.19;10285306;28;20058;-86
2022/08/01 18:26:11;;;;;;;5.90;1.50;;;;;;;17.67;55.96;100067.47;10297835;28;20049;-86
2022/08/01 18:31:19;;;;;;;8.35;1.50;;;;;;;17.48;56.07;99995.56;10292814;28;20090;-86
2022/08/01 18:36:20;;;;;;;5.72;1.60;;;;;;;17.44;56.02;99987.72;10301389;28;20557;-85
2022/08/01 18:41:35;;;;;;;8.27;1.80;;;;;;;17.28;56.41;99931.69;10293409;28;20141;-86
2022/08/01 18:46:38;;;;;;;8.75;1.55;;;;;;;-147.53;100.00;57128.34;10294079;28;20047;-86
2022/08/01 18:51:40;;;;;;;10.82;1.80;;;;;;;-147.53;100.00;57128.34;10282935;28;20451;-86
2022/08/01 18:56:45;;;;;;;10.68;1.50;;;;;;;-147.53;100.00;57128.34;10289848;28;20065;-86
2022/08/01 19:01:47;;;;;;;8.82;1.45;;;;;;;-147.53;100.00;57128.34;10291763;28;20513;-86
2022/08/01 19:06:49;;;;;;;7.95;1.63;;;;;;;-147.53;100.00;57128.34;10275273;28;20054;-86
2022/08/01 19:11:50;;;;;;;10.20;1.70;;;;;;;-147.53;100.00;57128.34;10289237;28;20138;-86
2022/08/01 19:16:52;;;;;;;8.88;2.13;;;;;;;16.19;57.30;99575.72;10278704;28;20471;-86
2022/08/01 19:21:54;;;;;;;9.18;1.75;;;;;;;16.10;57.71;99536.34;10295800;28;20042;-87
2022/08/01 19:26:58;;;;;;;10.48;1.70;;;;;;;16.02;57.83;99521.56;10302954;28;20140;-87
2022/08/01 19:32:09;;;;;;;20.13;2.40;;;;;;;15.86;58.10;99464.78;10291981;28;20046;-86
2022/08/01 19:37:11;;;;;;;9.00;1.52;;;;;;;15.66;58.33;99399.31;10300953;28;20048;-86
2022/08/01 19:42:13;;;;;;;7.20;1.73;;;;;;;15.56;58.32;99372.28;10284297;28;20051;-87
2022/08/01 19:47:16;;;;;;;9.65;2.25;;;;;;;15.43;58.52;99323.38;10285940;28;20046;-87
2022/08/01 19:52:23;;;;;;;8.88;2.05;;;;;;;15.25;58.82;99267.56;10292851;28;20465;-87
2022/08/01 19:57:27;;;;;;;11.18;1.92;;;;;;;15.10;58.83;99223.16;10261316;28;20137;-87
2022/08/01 20:02:45;;;;;;;;;;;;;;;14.97;59.18;99176.03;10301435;28;20062;-86
2022/08/01 20:07:49;;;;;;;6.20;1.55;;;;;;;14.84;59.34;99129.84;10303661;28;19929;-86
2022/08/01 20:12:51;;;;;;;8.63;2.05;;;;;;;14.74;59.54;99099.38;10301405;28;20077;-87
2022/08/01 20:17:57;;;;;;;11.60;1.98;;;;;;;14.59;59.86;99061.09;10304040;28;20593;-87
2022/08/01 20:23:00;;;;;;;8.35;2.17;;;;;;;14.43;60.01;98995.69;10288784;28;20051;-87
2022/08/01 20:28:04;;;;;;;7.47;1.70;;;;;;;14.27;60.25;98953.09;10277179;28;20046;-87
2022/08/01 20:33:08;;;;;;;10.80;2.45;;;;;;;14.17;60.47;98916.53;10274012;28;20102;-87
2022/08/01 20:38:11;;;;;;;8.30;2.55;;;;;;;14.02;60.63;98875.72;10298783;28;20039;-87
2022/08/01 20:43:21;;;;;;;8.77;2.67;;;;;;;13.81;60.83;98803.50;10298521;28;20046;-87
2022/08/01 20:48:28;;;;;;;8.57;2.40;;;;;;;13.74;61.08;98790.53;10299644;28;20043;-87
2022/08/01 20:53:32;;;;;;;11.10;2.30;;;;;;;13.60;61.38;98748.84;10301446;28;20164;-87
2022/08/01 20:59:02;;;;;;;6.70;2.30;;;;;;;13.52;61.70;98723.66;10298248;28;20049;-87
2022/08/01 21:04:07;;;;;;;4.05;1.60;;;;;;;13.42;61.93;98696.75;10314956;28;20049;-87
2022/08/01 21:09:12;;;;;;;6.78;1.60;;;;;;;13.27;62.17;98650.72;10310314;28;20130;-87
2022/08/01 21:14:19;;;;;;;7.78;1.95;;;;;;;13.12;62.18;98604.72;10289236;28;20085;-87
2022/08/01 21:19:25;;;;;;;10.60;2.42;;;;;;;-147.53;100.00;57128.34;10293204;28;20047;-87
2022/08/01 21:24:42;;;;;;;12.73;2.50;;;;;;;-147.53;100.00;57128.34;10286645;28;20065;-87
2022/08/01 21:29:48;;;;;;;7.63;2.10;;;;;;;12.85;63.18;98531.03;10303477;28;20584;-87
2022/08/01 21:34:50;;;;;;;12.82;2.33;;;;;;;12.70;63.30;98481.56;10311107;28;20043;-87
2022/08/01 21:39:52;;;;;;;10.63;2.78;;;;;;;12.64;63.66;98468.59;10280949;28;20051;-87
2022/08/01 21:44:59;;;;;;;6.97;2.45;;;;;;;12.57;63.96;98449.56;10299635;28;20125;-87
2022/08/01 21:50:02;;;;;;;11.60;2.63;;;;;;;12.49;64.08;98425.25;10278322;28;20039;-87
2022/08/01 21:55:15;;;;;;;9.07;2.40;;;;;;;12.35;64.37;98389.78;10304584;28;20042;-87
2022/08/01 22:00:21;;;;;;;10.55;2.67;;;;;;;12.27;64.64;98362.06;10310545;28;20086;-87
2022/08/01 22:05:28;;;;;;;8.35;2.45;;;;;;;12.02;64.82;98278.81;10312641;28;20520;-87
2022/08/01 22:10:59;;;;;;;12.98;3.45;;;;;;;11.93;64.99;98247.59;10287723;28;20101;-87
2022/08/01 22:16:03;;;;;;;6.72;2.50;;;;;;;11.72;65.29;98181.72;10298624;28;20039;-87
2022/08/01 22:21:04;;;;;;;11.07;3.10;;;;;;;11.61;65.50;98153.22;10292287;28;20043;-87
2022/08/01 22:26:09;;;;;;;9.10;2.47;;;;;;;11.59;65.76;98149.78;10280233;28;20098;-87
2022/08/01 22:31:14;;;;;;;11.30;2.33;;;;;;;11.53;66.05;98138.63;10307197;28;20498;-87
2022/08/01 22:36:17;;;;;;;12.93;3.85;;;;;;;11.44;66.45;98109.16;10309102;28;20054;-88
2022/08/01 22:41:28;;;;;;;7.53;2.63;;;;;;;11.42;66.55;98107.50;10313500;28;20097;-87
2022/08/01 22:46:52;;;;;;;10.23;2.38;;;;;;;11.37;66.67;98107.63;10298846;28;20046;-87
2022/08/01 22:52:18;;;;;;;8.15;2.30;;;;;;;11.32;67.05;98091.19;10289587;28;20062;-87
2022/08/01 22:57:27;;;;;;;8.35;2.20;;;;;;;11.23;67.21;98075.72;10301336;28;20050;-88
2022/08/01 23:02:31;;;;;;;8.43;2.57;;;;;;;-147.53;100.00;57128.34;10302612;28;20077;-87
2022/08/01 23:07:38;;;;;;;9.90;2.50;;;;;;;-147.53;100.00;57128.34;10310762;28;20470;-87
2022/08/01 23:12:41;;;;;;;7.95;2.72;;;;;;;-147.53;100.00;57128.34;10307159;28;20049;-87
2022/08/01 23:17:45;;;;;;;7.78;3.53;;;;;;;-147.53;100.00;57128.34;10298408;28;20172;-87
2022/08/01 23:22:48;;;;;;;8.15;3.00;;;;;;;-147.53;100.00;57128.34;10279423;28;20038;-87
2022/08/01 23:27:50;;;;;;;11.68;2.85;;;;;;;-147.53;100.00;57128.34;10261044;28;20069;-87